Troye d'Ariège ULM

FR-0355 · Ariège, Occitanie, 法国

使用的METAR站距离机场41 km。
罗盘
风向 的 风向 270° Troye d'Ariège ULM 11/29
风: 8 kt, 3 beaufort

8 kt

3 kt
改变
0 ft 1.000 2.000 3.000 4.000 5.000
Cloud Cloud Cloud Cloud
SCT 1.200
METAR LFMK 210400Z AUTO 27008KT 9999 SCT012 15/13 Q1018 TEMPO BKN008

METAR Troye d'Ariège ULM - FR-0355

Troye d'Ariège ULM是,法国中的小机场。 该机场位于纬度43,02004和经度1,87814。 该机场有一条跑道: 11/29. 这个机场没有ICAO代码,我们使用FR-0355作为参考。 机场在Bordeaux FIR中。

该航空气象观测是针对Carcassonne Airport在2024年6月21日 06:00, 当地时间进行的。

机场观察

风向为270°,速度为8 kt。

可见度为10 km 或者更多。

有疏云,零星散落的云朵在1.200 ft的高度。 没有观察到天花板。

温度和风寒是15 °C。 露点为13 °C,相对湿度为88%。 海平面上的气压为1018 hPa (QNH)。

发展趋势

  • 暂时的

    可变方向的风很小或没有。 碎云在800 ft的高度.

白天

今天,太阳从06:13升起,在21:35降落。 这适用于Troye d'Ariège ULM,世界夏令时可能有所不同。 当地时间与世界标准时间之间的时差为+2 小时。 夏令时目前正在进行中。

公司介绍

我们没有关于这个机场的公司信息。

体会

到Vliegles.nl去找飞行课程,跳伞和其他飞行体验。 浏览页面,了解Troye d'Ariège ULM附近所有可用的活动。 你也可以使用搜索功能来寻找你所在地附近的特定飞行课程、跳伞或其他飞行体验。

跑道

Id 标题 侧风 逆风 侧风 %
11/29 110°-290° 3 kt 8 kt 34 %

逆风成分最大的方向会被突出显示,并用于横风计算。 这并不一定意味着这个方向在使用。

乌云

1.200 ft SCT 疏云,零星散落的云朵
800 ft BKN 暂时的 碎云

温度 & 天气

温度 15 °C
露点 13 °C
相对湿度 88%
Kp-index 1 (0-9)

白天

日出
06:11
中午
13:52
日落
21:34 (15:16)

小工具

你想在你的网站上有一个关于Troye d'Ariège ULM的当前航空天气(METAR)的小部件吗?

显示HTML代码
报告变更